Taurus — 2CPB4 — position and weather

sailwx.info

Track history (hours):
 
Tides and Currents Weather Stations Pressure Air Temp Water Temp Dewpoint Dewpoint Depression Visibility Wind Speed Wind Dir Waves Ship Positions

Taurus

Last reported at 2016-Jul-21 02:33 UTC. Time now 2016-Jul-28 04:51 UTC.
Position S 31°54' E 034°01'.

Length 292 m; draft 18.4 m.

Type: Cargo ship. MMSI: 235074621.

Date/timePositionNaut miles runAvg speedWind from/ knotsBaromVisibWave heightAir tempDewpointWater temp
2016-Jul-21 02:33S 31°54' E 034°01'12 9.8
2016-Jul-21 01:20S 31°58' E 033°47'8 9.6
2016-Jul-21 00:33S 32°01' E 033°39'10 9.6
2016-Jul-20 23:32S 32°05' E 033°29'1010.0
2016-Jul-20 22:33S 32°09' E 033°18'1010.3
2016-Jul-20 21:33S 32°13' E 033°07'1010.1
2016-Jul-20 20:33S 32°17' E 032°56'1010.5
2016-Jul-20 19:33S 32°21' E 032°44'1110.7
2016-Jul-20 18:33S 32°25' E 032°33'1010.4
2016-Jul-20 17:33S 32°29' E 032°21'1110.9
2016-Jul-20 16:33S 32°33' E 032°09'1111.2
2016-Jul-20 15:33S 32°38' E 031°57'1111.3
2016-Jul-20 14:33S 32°43' E 031°45'1111.4
2016-Jul-20 13:33S 32°47' E 031°33'1211.6
2016-Jul-20 12:33S 32°52' E 031°20'1111.3
2016-Jul-20 11:33S 32°56' E 031°08'1111.4
2016-Jul-20 10:33S 33°00' E 030°55'  
2016-Jul-17 16:15S 34°27' E 017°55'  
Track history (hours):
 
Tides and Currents Weather Stations Pressure Air Temp Water Temp Dewpoint Dewpoint Depression Visibility Wind Speed Wind Dir Waves Ship Positions

Taurus

Last reported at 2016-Jul-21 02:33 UTC. Time now 2016-Jul-28 04:51 UTC.
Position S 31°54' E 034°01'.

Length 292 m; draft 18.4 m.

Type: Cargo ship. MMSI: 235074621.

Date/timePositionNaut miles runAvg speedWind from/ knotsBaromVisibWave heightAir tempDewpointWater temp
2016-Jul-21 02:33S 31°54' E 034°01'12 9.8
2016-Jul-21 01:20S 31°58' E 033°47'8 9.6
2016-Jul-21 00:33S 32°01' E 033°39'10 9.6
2016-Jul-20 23:32S 32°05' E 033°29'1010.0
2016-Jul-20 22:33S 32°09' E 033°18'1010.3
2016-Jul-20 21:33S 32°13' E 033°07'1010.1
2016-Jul-20 20:33S 32°17' E 032°56'1010.5
2016-Jul-20 19:33S 32°21' E 032°44'1110.7
2016-Jul-20 18:33S 32°25' E 032°33'1010.4
2016-Jul-20 17:33S 32°29' E 032°21'1110.9
2016-Jul-20 16:33S 32°33' E 032°09'1111.2
2016-Jul-20 15:33S 32°38' E 031°57'1111.3
2016-Jul-20 14:33S 32°43' E 031°45'1111.4
2016-Jul-20 13:33S 32°47' E 031°33'1211.6
2016-Jul-20 12:33S 32°52' E 031°20'1111.3
2016-Jul-20 11:33S 32°56' E 031°08'1111.4
2016-Jul-20 10:33S 33°00' E 030°55'  
2016-Jul-17 16:15S 34°27' E 017°55'  

Dump ship's entire track history